GABS Airport Information

Runway Information
Runway 06 Length 10498 ft width 148 ft Elevation 1187 ft Threshold N/A Heading 57
Runway 24 Length 10498 ft Width 148 ft Elevation 1244 ft Threshold N/A Heading 237
Airport Frequencies
Type A/G Name A/G Frequency 667.3 MHZ
Type ACC Name ACC Frequency 119.1 MHZ
Type TWR Name TWR Frequency 118.3 MHZ
Airport Navaids
Type VOR-DME Name Bamako/Senou Frequency 113700 KHZ
Type NDB Name Bamako/Senou Frequency 301 KHZ
Airport Weather Information & NOTAM
ADDS - METARS form results

(0541 UTC 04 December 2022)
Data provider http://aviationweather.gov/metar/data/
 
METAR text: GABS 040530Z 24001KT 9999 FEW020 21/20 Q1010 NOSIG
Conditions at: GABS (BAMAKO/SENOU (MI, ML) observed 0530 UTC 04 December 2022
Temperature: 21.0°C (70°F)
Dewpoint: 20.0°C (68°F) [RH = 94%]
Pressure (altimeter): 29.82 inches Hg (1010.0 mb)
Winds: from the WSW (240 degrees) at 1 MPH (1 knots; 0.5 m/s)
Visibility: 6 or more miles (10+ km)
Ceiling: at least 12,000 feet AGL
Clouds: few clouds at 2000 feet AGL
Weather: no significant weather observed at this time

METAR text: GABS 040500Z 22002KT 9999 FEW020 22/20 Q1010 NOSIG
Conditions at: GABS (BAMAKO/SENOU (MI, ML) observed 0500 UTC 04 December 2022
Temperature: 22.0°C (72°F)
Dewpoint: 20.0°C (68°F) [RH = 88%]
Pressure (altimeter): 29.82 inches Hg (1010.0 mb)
Winds: from the SW (220 degrees) at 2 MPH (2 knots; 1.0 m/s)
Visibility: 6 or more miles (10+ km)
Ceiling: at least 12,000 feet AGL
Clouds: few clouds at 2000 feet AGL
Weather: no significant weather observed at this time

Forecast for: GABS (BAMAKO/SENOU (MI, ML)
Text: TAF GABS 040500Z 0406/0512 22006KT 9999 FEW030
Forecast period: 0600 UTC 04 December 2022 to 1200 UTC 05 December 2022
Forecast type: FROM: standard forecast or significant change
Winds: from the SW (220 degrees) at 7 MPH (6 knots; 3.1 m/s)
Visibility: 6 or more miles (10+ km)
Ceiling: at least 12,000 feet AGL
Clouds: few clouds at 3000 feet AGL
Weather: no significant weather forecast for this period
Text: TEMPO 0416/0420 TS BKN010 SCT030 FEW040CB
Forecast period: 1600 to 2000 UTC 04 December 2022
Forecast type: TEMPORARY: The following changes expected for less than half the time period
Visibility: missing
Ceiling: 1000 feet AGL
Clouds: broken clouds at 1000 feet AGL
scattered clouds at 3000 feet AGL
few clouds at 4000 feet AGL
Weather: TS  (thunderstorm)